Fife Lake, Michigan
Current Conditions -  °F | °C
As of 2:53 PM on Saturday 25 Oct 2014 (Local Time) from KTVC Reporting Station
Few Clouds Few Clouds  
Wind Chill: 62°   Ceiling: Unl
Heat Index: 62°   Visibility: 10mi
Dew Point: 35°   Wind: 15mph
Humidity: 37%   Direction: 280°W
Pressure: 29.73"   Gusts: 28mph
Location:  44.58°N, 85.35°W
Report Text: KTVC 251853Z 28013G24KT 10SM FEW062 17/02 A2973 RMK AO2 PK WND 28027/1756 SLP068 T01670017
Loading
Personal Weather Stations






























Interactive Weather Map
Tropical Storm Tracking
New forecast layout! Learn more

10-Day Weather Forecast

Advertisements
Track Severe Weather on mobile